Blue Oak Ranch Reserve, California Weather observations

Data are for 10 minute period ending at time listed.
 Day   Time   Solar   Ave.   Ave.  Ave.  Vector  Max.   Baro.   Total    
  of    of     Rad.   Air    Rel.  Wind   Wind   Wind  Press.  Precip.   
Year   Day            Temp.  Hum.  Speed  Dir.   Gust                    
2014   (PST)  Kw/m2    F      %     mph   deg.    mph    mb.     in.     
-------------------------------------------------------------------------
 211    4:40   0.00   65.0    27    0.0   307     0.5   948.3    0.00 
 211    4:50   0.00   64.8    24    0.0     0     0.0   948.3    0.00 
 211    5:00   0.00   65.0    23    0.2   321     0.9   948.4    0.00 
 211    5:10   0.00   65.2    22    0.2   337     0.9   948.5    0.00 
 211    5:20   0.01   65.2    23    0.0     0     0.0   948.6    0.00 
 211    5:30   0.01   65.2    23    0.0   262     0.1   948.7    0.00 
 211    5:40   0.01   65.0    24    0.5    16     1.5   948.7    0.00 
 211    5:50   0.02   64.4    25    0.7    52     2.3   948.7    0.00 
 211    6:00   0.04   64.5    25    1.0   298     2.1   948.7    0.00 
 211    6:10   0.06   65.4    25    0.3   137     1.2   948.7    0.00 
 211    6:20   0.14   67.1    24    0.2    83     1.0   948.8    0.00 
 211    6:30   0.18   69.7    22    0.0     0     0.0   948.9    0.00 
 211    6:40   0.22   75.3    18    0.0     0     0.0   949.0    0.00 
 211    6:50   0.24   81.2    16    0.1   140     1.0   949.2    0.00 
 211    7:00   0.26   81.2    16    1.4   156     2.9   949.4    0.00 
 211    7:10   0.28   79.7    19    2.5   131     3.9   949.6    0.00 
 211    7:20   0.30   79.0    21    2.4   136     4.2   949.7    0.00 
 211    7:30   0.33   80.6    19    1.8   137     2.8   949.6    0.00 
 211    7:40   0.35   81.2    18    1.9   133     3.4   949.6    0.00 
 211    7:50   0.40   83.4    17    1.4   150     2.5   949.5    0.00 
 211    8:00   0.43   85.6    15    1.8   132     3.8   949.6    0.00 
 211    8:10   0.47   86.3    16    1.7   153     4.2   949.5    0.00 
 211    8:20   0.50   87.9    16    3.3   247     6.4   949.4    0.00 
 211    8:30   0.53   88.3    16    3.5   224     7.5   949.4    0.00 
 211    8:40   0.55   87.2    18    4.5   232     5.9   949.4    0.00 
 211    8:50   0.58   87.8    18    3.5   233     5.3   949.3    0.00 
 211    9:00   0.61   88.9    16    3.6   228     6.0   949.3    0.00 
 211    9:10   0.64   88.6    17    4.7   239     6.9   949.3    0.00 
 211    9:20   0.66   88.4    18    4.8   230     6.7   949.2    0.00 
 211    9:30   0.69   88.7    17    5.0   234     7.5   949.2    0.00 
 211    9:40   0.71   88.4    18    5.6   232     9.8   949.2    0.00 
 211    9:50   0.73   87.1    19    6.4   228    10.3   949.2    0.00 
 211   10:00   0.75   85.6    22    7.4   229    11.9   949.3    0.00 
 211   10:10   0.77   85.6    24    6.9   232    11.0   949.4    0.00 
 211   10:20   0.79   86.3    23    6.1   231     9.5   949.4    0.00 
 211   10:30   0.81   86.2    22    6.8   228     9.3   949.4    0.00 
 211   10:40   0.82   87.6    24    5.5   240     9.5   949.4    0.00 
 211   10:50   0.83   87.2    24    5.4   241     8.8   949.5    0.00 
 211   11:00   0.85   88.5    21    4.7   250     7.4   949.4    0.00 
 211   11:10   0.86   90.1    18    5.2   270     8.8   949.4    0.00 
 211   11:20   0.87   90.3    19    5.7   248     8.6   949.4    0.00 
 211   11:30   0.88   90.7    21    6.6   269     9.9   949.3    0.00 
 211   11:40   0.89   91.7    18    4.9   247     9.1   949.3    0.00 
 211   11:50   0.89   91.5    20    5.4   249     9.3   949.2    0.00 
 211   12:00   0.89   90.8    21    6.8   243    11.0   949.1    0.00 
 211   12:10   0.90   91.2    21    5.8   248    10.8   949.0    0.00 
 211   12:20   0.90   91.3    20    6.5   237    10.4   949.0    0.00 
 211   12:30   0.90   91.1    20    5.6   251    10.4   949.0    0.00 
 211   12:40   0.90   92.2    18    5.7   254    10.2   949.0    0.00 
 211   12:50   0.90   92.4    17    5.4   255     9.7   948.9    0.00 
 211   13:00   0.86   92.5    19    5.6   251    10.3   948.9    0.00 
 211   13:10   0.89   92.7    17    5.8   246    10.3   948.9    0.00 
 211   13:20   0.88   93.1    17    6.3   241    11.6   948.9    0.00 
 211   13:30   0.86   92.8    18    5.8   238     9.9   948.9    0.00 
 211   13:40   0.85   93.2    18    5.8   239     9.4   948.9    0.00 
 211   13:50   0.83   93.6    15    6.5   244    12.0   948.8    0.00 
 211   14:00   0.82   93.7    17    6.0   251     9.7   948.8    0.00 
 211   14:10   0.80   94.4    17    6.6   230    11.4   948.8    0.00 
 211   14:20   0.79   93.3    19    5.8   238     9.9   948.8    0.00 
 211   14:30   0.77   94.2    19    6.2   244    10.5   948.8    0.00 
 211   14:40   0.75   93.9    22    6.7   245    10.2   948.8    0.00 
 211   14:50   0.73   93.6    25    6.1   241    11.1   948.8    0.00 
 211   15:00   0.71   93.6    24    6.1   233     9.2   948.7    0.00 
 211   15:10   0.68   93.6    24    7.0   234    12.5   948.6    0.00 
 211   15:20   0.66   93.1    26    6.5   233    10.4   948.5    0.00 
 211   15:30   0.63   93.7    25    6.2   285    12.3   948.5    0.00 
 211   15:40   0.60   94.1    24    6.5   267    10.6   948.5    0.00 
 211   15:50   0.57   93.6    26    5.5   254    10.3   948.4    0.00 
 211   16:00   0.55   94.1    22    6.9   271    11.6   948.4    0.00 
 211   16:10   0.52   94.2    20    6.7   275    10.7   948.4    0.00 
 211   16:20   0.49   94.1    20    7.1   279    11.5   948.4    0.00 
 211   16:30   0.46   93.8    16    7.4   275    12.2   948.3    0.00 
 211   16:40   0.43   93.3    14    7.6   274    12.6   948.2    0.00 
 211   16:50   0.40   92.7    14    7.9   284    12.6   948.2    0.00 
 211   17:00   0.37   93.1    14    7.3   288    11.5   948.2    0.00 
 211   17:10   0.34   92.4    13    6.7   297    10.7   948.1    0.00 
 211   17:20   0.30   92.4    13    6.8   298    10.7   948.1    0.00 
 211   17:30   0.27   91.1    14    7.2   291    11.8   948.0    0.00 
 211   17:40   0.24   90.9    14    6.7   305    11.8   948.0    0.00 
 211   17:50   0.21   90.2    14    6.2   304    10.2   948.0    0.00 
 211   18:00   0.18   90.6    15    5.5   284    10.1   948.0    0.00 
 211   18:10   0.15   89.5    18    5.6   287     9.6   948.1    0.00 
 211   18:20   0.13   88.3    19    6.1   291    10.4   948.2    0.00 
 211   18:30   0.10   86.8    19    6.2   290     9.7   948.2    0.00 
 211   18:40   0.08   86.1    20    4.7   285     6.9   948.4    0.00 
 211   18:50   0.06   85.0    21    3.8   290     5.6   948.5    0.00 
 211   19:00   0.04   84.3    22    3.0   291     4.1   948.6    0.00 
 211   19:10   0.01   81.5    23    3.5   316     5.3   948.7    0.00 
 211   19:20   0.01   79.7    23    2.8   332     4.4   948.9    0.00 
 211   19:30   0.01   77.7    26    1.3   286     2.6   948.9    0.00 
 211   19:40   0.00   76.1    25    1.5    58     2.4   949.0    0.00 
 211   19:50   0.00   74.8    26    2.1   327     2.9   949.0    0.00 
 211   20:00   0.00   73.5    26    0.9   331     2.1   949.0    0.00 
 211   20:10   0.00   73.0    25    0.8   311     1.8   949.1    0.00 
 211   20:20   0.00   72.5    27    1.6   283     3.1   949.1    0.00 
 211   20:30   0.00   71.5    27    1.8   306     3.2   949.1    0.00 
 211   20:40   0.00   71.0    26    0.6    47     1.7   949.1    0.00 
 211   20:50   0.00   70.4    27    0.5   314     1.5   949.1    0.00 
 211   21:00   0.00   69.9    28    1.4   289     2.0   949.0    0.00 
 211   21:10   0.00   69.4    27    0.4   309     1.5   948.8    0.00 
 211   21:20   0.00   69.0    27    0.4   311     1.6   948.8    0.00 
 211   21:30   0.00   69.0    26    0.6    67     2.0   948.7    0.00 
 211   21:40   0.00   68.9    25    0.6   274     1.5   948.7    0.00 
 211   21:50   0.00   68.6    25    0.0     0     0.0   948.7    0.00 
 211   22:00   0.00   68.0    25    0.0   136     0.6   948.6    0.00 
 211   22:10   0.00   67.6    26    0.7   294     1.5   948.6    0.00 
 211   22:20   0.00   67.1    27    0.0   294     0.6   948.5    0.00 
 211   22:30   0.00   67.6    24    0.1   152     0.9   948.5    0.00 
 211   22:40   0.00   67.5    24    0.4    44     1.5   948.5    0.00 
 211   22:50   0.00   67.3    25    0.5   354     0.9   948.4    0.00 
 211   23:00   0.00   66.6    26    0.9   289     1.3   948.3    0.00 
 211   23:10   0.00   65.9    25    1.0   290     2.0   948.3    0.00 
 211   23:20   0.00   66.6    22    0.3   283     1.2   948.1    0.00 
 211   23:30   0.00   66.9    22    0.2   287     1.3   948.0    0.00 
 211   23:40   0.00   67.0    21    0.3   240     0.9   947.9    0.00 
 211   23:50   0.00   67.3    20    0.7   280     1.3   947.9    0.00 
 212    0:00   0.00   66.6    20    0.8   298     1.7   947.9    0.00 
 212    0:10   0.00   67.0    19    0.5   297     1.8   947.8    0.00 
 212    0:20   0.00   67.5    19    0.1   224     1.1   947.8    0.00 
 212    0:30   0.00   67.7    18    0.1    80     0.9   947.9    0.00 
 212    0:40   0.00   67.6    18    0.4    48     1.5   947.9    0.00 
 212    0:50   0.00   67.6    18    0.0   242     0.4   947.9    0.00 
 212    1:00   0.00   67.4    19    0.0     0     0.0   947.9    0.00 
 212    1:10   0.00   67.4    18    0.3    50     1.7   948.0    0.00 
 212    1:20   0.00   66.8    19    0.3   259     1.0   948.0    0.00 
 212    1:30   0.00   66.6    20    0.4   277     1.5   947.9    0.00 
 212    1:40   0.00   66.6    19    0.6   308     1.2   947.9    0.00 
 212    1:50   0.00   66.3    20    0.2   272     1.2   948.0    0.00 
 212    2:00   0.00   66.4    20    0.0   328     0.6   948.0    0.00 
 212    2:10   0.00   65.8    21    0.0   312     0.5   948.0    0.00 
 212    2:20   0.00   65.3    20    0.3    86     1.2   948.0    0.00 
 212    2:30   0.00   65.2    21    0.1   244     0.8   947.9    0.00 
 212    2:40   0.00   64.9    21    0.5   278     1.3   947.8    0.00 
 212    2:50   0.00   64.8    23    1.0   304     2.4   947.8    0.00 
 212    3:00   0.00   64.7    24    0.0    71     0.9   947.7    0.00 
 212    3:10   0.00   64.7    23    0.1   104     0.7   947.7    0.00 
 212    3:20   0.00   63.8    25    0.4   287     1.5   947.5    0.00 
 212    3:30   0.00   63.6    24    1.0   354     2.1   947.5    0.00 
 212    3:40   0.00   63.6    23    0.3    94     1.2   947.5    0.00 
 212    3:50   0.00   64.1    22    0.0   310     0.1   947.5    0.00 
 212    4:00   0.00   64.0    22    0.0   311     0.4   947.5    0.00 
 212    4:10   0.00   64.4    20    0.0     0     0.0   947.5    0.00 
 212    4:20   0.00   64.6    20    0.0     0     0.0   947.5    0.00 
 212    4:30   0.00   64.5    20    0.0    28     0.4   947.4    0.00 

Return to Blue Oak Ranch Reserve graphs page.


Western Regional Climate Center,wrcc@dri.edu